Time;durP1;ratioP1;P1;durP2;ratioP2;P2;SDS_P1;SDS_P2;PMS_P1;PMS_P2;Temp;Humidity;BMP_temperature;BMP_pressure;BME280_temperature;BME280_humidity;BME280_pressure;Samples;Min_cycle;Max_cycle;Signal;HPM_P1;HPM_P2
2024/04/17 00:01:16;;;;;;;14.65;4.63;;;;;;;16.01;61.42;93365.94;5492502;26;20433;-67
2024/04/17 00:03:41;;;;;;;15.93;5.63;;;;;;;16.06;61.19;93359.09;5525391;26;20025;-67
2024/04/17 00:06:06;;;;;;;11.00;5.60;;;;;;;15.90;61.15;93346.34;5525779;26;20022;-67
2024/04/17 00:08:32;;;;;;;12.52;5.00;;;;;;;15.78;61.82;93342.69;5483812;26;20042;-67
2024/04/17 00:10:58;;;;;;;13.15;5.28;;;;;;;15.65;62.46;93341.56;5456950;26;19994;-67
2024/04/17 00:13:23;;;;;;;11.18;4.63;;;;;;;15.69;62.64;93349.09;5457250;26;20319;-67
2024/04/17 00:15:49;;;;;;;13.18;4.93;;;;;;;15.77;61.79;93338.44;5489104;26;20015;-67
2024/04/17 00:18:14;;;;;;;9.20;4.75;;;;;;;15.85;62.63;93335.63;5488541;26;20009;-67
2024/04/17 00:20:40;;;;;;;12.23;4.00;;;;;;;15.82;62.22;93325.56;5488977;26;20027;-67
2024/04/17 00:23:05;;;;;;;13.82;4.45;;;;;;;15.62;61.87;93320.22;5486279;26;19994;-67
2024/04/17 00:25:31;;;;;;;15.02;4.40;;;;;;;15.55;62.17;93307.09;5488772;26;19998;-67
2024/04/17 00:27:56;;;;;;;14.13;4.93;;;;;;;15.63;62.24;93308.75;5488649;26;19998;-67
2024/04/17 00:30:21;;;;;;;15.85;4.85;;;;;;;15.68;62.09;93300.31;5488907;26;20022;-67
2024/04/17 00:32:47;;;;;;;14.48;4.97;;;;;;;15.51;63.06;93297.19;5488707;26;20448;-67
2024/04/17 00:35:12;;;;;;;9.82;4.43;;;;;;;15.78;62.76;93303.41;5488616;26;20055;-67
2024/04/17 00:37:37;;;;;;;24.15;6.50;;;;;;;15.70;62.71;93293.09;5521013;26;19994;-67
2024/04/17 00:40:03;;;;;;;13.77;5.40;;;;;;;15.69;62.86;93291.50;5525655;26;19990;-67
2024/04/17 00:42:29;;;;;;;10.55;4.60;;;;;;;15.68;63.28;93285.44;5524848;26;19997;-67
2024/04/17 00:44:54;;;;;;;11.85;5.30;;;;;;;15.56;63.68;93276.50;5514761;26;19997;-67
2024/04/17 00:47:19;;;;;;;17.15;6.18;;;;;;;15.38;64.06;93264.75;5488547;26;20030;-67
2024/04/17 00:49:45;;;;;;;11.98;5.97;;;;;;;15.51;63.68;93268.41;5488432;26;19994;-67
2024/04/17 00:52:10;;;;;;;13.40;7.00;;;;;;;15.46;63.59;93261.16;5488390;26;20005;-67
2024/04/17 00:54:36;;;;;;;10.77;5.43;;;;;;;15.52;63.79;93268.22;5474920;26;20025;-67
2024/04/17 00:57:01;;;;;;;12.82;6.40;;;;;;;15.54;63.61;93263.59;5524473;26;20511;-67
2024/04/17 00:59:27;;;;;;;13.45;6.25;;;;;;;15.61;63.11;93274.91;5463382;26;19993;-66
2024/04/17 01:01:52;;;;;;;12.75;6.47;;;;;;;15.63;63.19;93259.81;5496062;26;20008;-67
2024/04/17 01:04:17;;;;;;;14.80;6.70;;;;;;;15.64;62.97;93247.53;5498924;26;20446;-67
2024/04/17 01:06:43;;;;;;;12.18;6.20;;;;;;;15.69;63.06;93228.69;5459300;26;19986;-67
2024/04/17 01:09:08;;;;;;;13.50;7.32;;;;;;;15.73;62.58;93235.13;5490156;26;19986;-66
2024/04/17 01:11:40;;;;;;;13.90;7.10;;;;;;;15.64;62.96;93232.63;5490851;26;19998;-67
2024/04/17 01:14:05;;;;;;;12.95;7.22;;;;;;;15.76;62.25;93226.88;5491836;26;20440;-67
2024/04/17 01:16:31;;;;;;;12.07;7.15;;;;;;;15.97;61.18;93236.41;5491914;26;20005;-67
2024/04/17 01:18:56;;;;;;;13.00;7.28;;;;;;;15.83;61.66;93240.78;5459543;26;20005;-67
2024/04/17 01:21:22;;;;;;;13.05;6.40;;;;;;;15.94;63.19;93263.78;5442960;26;19995;-66
2024/04/17 01:23:54;;;;;;;12.30;6.47;;;;;;;15.83;63.39;93256.50;5496054;26;20335;-67
2024/04/17 01:26:19;;;;;;;13.40;6.55;;;;;;;15.69;63.48;93249.63;5528563;26;19989;-67
2024/04/17 01:28:45;;;;;;;15.07;7.20;;;;;;;15.76;63.22;93253.03;5465911;26;20441;-67
2024/04/17 01:31:11;;;;;;;14.25;7.47;;;;;;;15.75;63.38;93247.00;5502983;26;20422;-67
2024/04/17 01:33:37;;;;;;;15.30;6.70;;;;;;;15.68;63.77;93229.63;5491221;26;20018;-67
2024/04/17 01:36:04;;;;;;;14.90;7.00;;;;;;;15.59;63.30;93235.03;5491038;26;20353;-67
2024/04/17 01:38:29;;;;;;;17.83;6.80;;;;;;;15.37;64.01;93209.97;5491429;26;20000;-67
2024/04/17 01:40:55;;;;;;;16.92;6.80;;;;;;;15.43;64.67;93217.03;5490568;26;20014;-67
2024/04/17 01:43:20;;;;;;;15.13;6.75;;;;;;;15.75;64.15;93227.88;5459306;26;20455;-67
2024/04/17 01:45:47;;;;;;;15.20;6.40;;;;;;;15.85;64.12;93228.28;5491559;26;19990;-67
2024/04/17 01:48:12;;;;;;;15.82;6.90;;;;;;;15.54;64.31;93219.09;5491036;26;20002;-67
2024/04/17 01:50:37;;;;;;;13.95;7.00;;;;;;;15.35;65.09;93204.13;5428957;26;19986;-67
2024/04/17 01:53:03;;;;;;;11.73;6.90;;;;;;;15.53;64.88;93199.19;5463697;26;20335;-67
2024/04/17 01:55:28;;;;;;;14.65;6.72;;;;;;;15.22;64.67;93175.31;5527907;26;19986;-67
2024/04/17 01:57:54;;;;;;;13.55;7.03;;;;;;;15.42;63.24;93218.06;5464024;26;20016;-67
2024/04/17 02:00:20;;;;;;;13.27;6.63;;;;;;;15.33;64.14;93193.88;5528045;26;20025;-68
2024/04/17 02:02:45;;;;;;;12.10;7.32;;;;;;;15.42;62.31;93184.84;5526967;26;20482;-67
2024/04/17 02:05:11;;;;;;;18.98;6.80;;;;;;;15.36;62.63;93177.00;5494680;26;19989;-67
2024/04/17 02:07:36;;;;;;;15.30;7.15;;;;;;;15.48;62.04;93175.41;5493078;26;19997;-67
2024/04/17 02:10:02;;;;;;;11.80;6.32;;;;;;;15.35;62.85;93163.09;5495012;26;19999;-67
2024/04/17 02:12:27;;;;;;;15.43;8.13;;;;;;;15.41;62.00;93154.47;5433476;26;20319;-67
2024/04/17 02:14:52;;;;;;;14.50;7.38;;;;;;;15.45;62.59;93165.34;5527781;26;19999;-67
2024/04/17 02:17:18;;;;;;;10.15;7.07;;;;;;;15.41;62.17;93157.09;5524794;25;20006;-67
2024/04/17 02:19:43;;;;;;;18.33;7.75;;;;;;;15.36;63.13;93146.41;5527688;26;20022;-67
2024/04/17 02:22:08;;;;;;;13.90;7.80;;;;;;;15.35;62.93;93151.81;5495181;26;20041;-67
2024/04/17 02:24:34;;;;;;;12.93;7.55;;;;;;;15.39;62.94;93143.38;5493899;26;20339;-67
2024/04/17 02:26:59;;;;;;;13.43;7.97;;;;;;;15.39;62.95;93138.16;5495000;26;19997;-67
2024/04/17 02:29:25;;;;;;;15.15;8.02;;;;;;;15.50;62.50;93131.53;5526898;26;19989;-67
2024/04/17 02:31:50;;;;;;;14.80;6.93;;;;;;;15.40;62.74;93131.09;5527390;26;20021;-67
2024/04/17 02:34:16;;;;;;;16.80;7.53;;;;;;;15.43;62.77;93133.31;5507988;26;20002;-66
2024/04/17 02:36:41;;;;;;;14.38;7.15;;;;;;;15.47;62.31;93124.09;5458259;26;20259;-67
2024/04/17 02:39:06;;;;;;;11.40;7.43;;;;;;;15.50;63.07;93109.81;5519265;26;20492;-67
2024/04/17 02:41:32;;;;;;;17.60;7.25;;;;;;;15.50;62.42;93110.59;5488525;26;20213;-67
2024/04/17 02:43:57;;;;;;;11.63;7.65;;;;;;;15.50;63.00;93105.38;5487173;26;20095;-67
2024/04/17 02:46:23;;;;;;;11.52;7.30;;;;;;;15.36;62.76;93090.66;5458058;26;20337;-67
2024/04/17 02:48:48;;;;;;;14.00;7.03;;;;;;;15.35;60.82;93102.09;5457804;26;20343;-67
2024/04/17 02:51:13;;;;;;;14.90;7.32;;;;;;;15.28;61.20;93085.59;5489155;26;19990;-67
2024/04/17 02:53:39;;;;;;;11.75;7.20;;;;;;;15.15;61.50;93102.84;5489419;26;20030;-66
2024/04/17 02:56:04;;;;;;;12.80;6.65;;;;;;;15.04;62.32;93090.34;5456952;26;20010;-66
2024/04/17 02:58:30;;;;;;;11.90;8.02;;;;;;;15.11;62.33;93101.63;5455359;26;19991;-66
2024/04/17 03:00:55;;;;;;;12.50;7.25;;;;;;;15.13;62.17;93109.31;5487009;26;20002;-67
2024/04/17 03:03:21;;;;;;;14.15;7.72;;;;;;;15.08;61.35;93107.25;5489820;26;20001;-67
2024/04/17 03:05:46;;;;;;;17.30;7.20;;;;;;;15.03;60.99;93109.66;5490030;26;20026;-67
2024/04/17 03:08:11;;;;;;;15.63;7.63;;;;;;;15.10;61.22;93107.88;5488663;26;20005;-66
2024/04/17 03:10:37;;;;;;;13.77;7.70;;;;;;;15.11;61.02;93106.88;5487729;26;19994;-66
2024/04/17 03:13:02;;;;;;;14.88;6.78;;;;;;;15.19;60.65;93108.50;5489556;26;20001;-67
2024/04/17 03:15:27;;;;;;;14.15;7.05;;;;;;;15.19;60.32;93109.31;5489337;26;19998;-67
2024/04/17 03:17:53;;;;;;;16.50;6.78;;;;;;;15.21;59.49;93111.75;5457123;26;19998;-67
2024/04/17 03:20:18;;;;;;;16.55;6.82;;;;;;;15.28;61.28;93115.19;5486830;26;19998;-66
2024/04/17 03:22:44;;;;;;;13.77;6.88;;;;;;;15.19;60.03;93113.75;5489014;26;20353;-67
2024/04/17 03:25:09;;;;;;;12.73;6.40;;;;;;;15.33;59.13;93120.63;5489628;26;20020;-67
2024/04/17 03:27:34;;;;;;;19.38;6.70;;;;;;;15.47;58.60;93116.25;5516357;25;19994;-66
2024/04/17 03:30:00;;;;;;;17.45;7.32;;;;;;;15.35;59.13;93096.88;5518457;26;19994;-67
2024/04/17 03:32:25;;;;;;;14.40;6.53;;;;;;;15.33;59.10;93112.78;5426796;26;20013;-67
2024/04/17 03:34:51;;;;;;;16.40;7.32;;;;;;;15.43;58.09;93104.53;5488924;26;19998;-67
2024/04/17 03:37:16;;;;;;;11.95;7.00;;;;;;;15.37;58.09;93084.41;5438212;26;20408;-67
2024/04/17 03:39:41;;;;;;;16.33;7.07;;;;;;;15.57;59.31;93095.75;5488663;26;20104;-67
2024/04/17 03:42:07;;;;;;;13.73;6.70;;;;;;;15.52;58.62;93103.38;5515505;26;19990;-67
2024/04/17 03:44:32;;;;;;;11.27;6.22;;;;;;;15.73;56.99;93105.03;5489246;26;19994;-67
2024/04/17 03:46:58;;;;;;;15.48;6.72;;;;;;;15.55;58.28;93116.06;5486669;26;20010;-67
2024/04/17 03:49:24;;;;;;;17.40;6.40;;;;;;;15.77;58.57;93132.44;5487589;26;20345;-67
2024/04/17 03:51:49;;;;;;;17.90;6.78;;;;;;;15.76;57.74;93101.22;5489356;26;20005;-67
2024/04/17 03:54:15;;;;;;;14.95;7.65;;;;;;;15.71;57.85;93129.78;5489166;26;20053;-67
2024/04/17 03:56:40;;;;;;;12.68;6.18;;;;;;;15.63;58.64;93131.56;5475154;26;20001;-67
2024/04/17 03:59:06;;;;;;;18.92;6.85;;;;;;;15.49;60.55;93113.41;5486360;26;19998;-66
2024/04/17 04:01:34;;;;;;;16.83;6.78;;;;;;;15.49;59.79;93122.09;5488790;26;20026;-67
2024/04/17 04:04:00;;;;;;;12.20;6.63;;;;;;;15.48;62.20;93123.06;5484777;26;20002;-67
2024/04/17 04:06:25;;;;;;;17.17;6.03;;;;;;;15.51;59.73;93117.44;5474178;26;19994;-67
2024/04/17 04:08:51;;;;;;;13.02;6.10;;;;;;;15.44;61.79;93121.06;5454292;26;20006;-67
2024/04/17 04:11:16;;;;;;;15.07;6.07;;;;;;;15.39;62.09;93114.59;5489289;26;20382;-66
2024/04/17 04:13:41;;;;;;;12.55;5.13;;;;;;;15.56;60.42;93116.84;5488087;26;20057;-67
2024/04/17 04:16:07;;;;;;;11.18;5.50;;;;;;;15.61;60.01;93115.25;5492885;25;20071;-67
2024/04/17 04:18:33;;;;;;;17.00;6.53;;;;;;;15.57;60.62;93116.69;5485495;25;20436;-67
2024/04/17 04:20:58;;;;;;;25.05;6.03;;;;;;;15.44;62.70;93119.25;5489074;26;20002;-67
2024/04/17 04:23:24;;;;;;;15.00;6.55;;;;;;;15.64;63.43;93133.19;5455611;26;19994;-67
2024/04/17 04:25:49;;;;;;;24.17;7.18;;;;;;;15.18;63.92;93112.94;5487173;26;20018;-67
2024/04/17 04:28:14;;;;;;;19.30;5.32;;;;;;;15.34;63.90;93121.44;5456674;26;20010;-67
2024/04/17 04:30:41;;;;;;;13.57;4.85;;;;;;;15.46;64.37;93108.56;5488991;26;20460;-67
2024/04/17 04:33:09;;;;;;;15.57;6.03;;;;;;;15.36;65.60;93101.13;5454878;26;20001;-67
2024/04/17 04:35:35;;;;;;;15.20;5.88;;;;;;;15.36;64.99;93116.81;5488976;26;20001;-67
2024/04/17 04:38:00;;;;;;;15.70;6.22;;;;;;;15.34;66.88;93105.72;5486514;26;19994;-67
2024/04/17 04:40:25;;;;;;;15.63;7.13;;;;;;;15.45;65.44;93107.78;5485486;26;20017;-67
2024/04/17 04:42:51;;;;;;;19.52;5.88;;;;;;;15.08;65.79;93091.56;5473143;26;20067;-67
2024/04/17 04:45:16;;;;;;;26.20;6.95;;;;;;;15.47;67.02;93115.44;5480890;26;19987;-67
2024/04/17 04:47:42;;;;;;;19.15;6.43;;;;;;;15.29;66.37;93108.13;5452180;26;19990;-67
2024/04/17 04:50:07;;;;;;;16.60;6.82;;;;;;;15.34;66.40;93121.44;5463718;26;20016;-68
2024/04/17 04:52:32;;;;;;;13.85;6.35;;;;;;;15.10;68.73;93100.03;5476765;26;20362;-71
2024/04/17 04:54:58;;;;;;;20.23;6.95;;;;;;;15.26;67.39;93122.41;5450153;26;20034;-72
2024/04/17 04:57:23;;;;;;;15.85;6.20;;;;;;;15.02;68.62;93107.25;5487905;26;20065;-73
2024/04/17 04:59:50;;;;;;;16.48;6.97;;;;;;;14.98;69.31;93120.69;5485362;26;20062;-72
2024/04/17 05:02:16;;;;;;;20.00;7.35;;;;;;;14.81;69.44;93116.78;5425179;26;19998;-73
2024/04/17 05:04:41;;;;;;;12.18;6.68;;;;;;;14.94;69.51;93116.06;5455133;26;19990;-72
2024/04/17 05:07:06;;;;;;;19.60;6.75;;;;;;;14.95;70.46;93112.44;5456429;26;19994;-72
2024/04/17 05:09:32;;;;;;;19.42;6.32;;;;;;;14.91;69.39;93121.69;5449834;26;20038;-72
2024/04/17 05:11:57;;;;;;;15.48;6.50;;;;;;;14.74;69.92;93084.63;5455455;26;20002;-72
2024/04/17 05:14:23;;;;;;;14.20;6.20;;;;;;;14.95;70.13;93112.44;5487294;26;19999;-72
2024/04/17 05:16:48;;;;;;;14.18;6.28;;;;;;;14.90;70.98;93122.66;5483511;26;19998;-71
2024/04/17 05:19:13;;;;;;;14.98;6.47;;;;;;;14.93;72.75;93112.66;5485357;26;19994;-71
2024/04/17 05:21:39;;;;;;;17.83;6.53;;;;;;;14.97;73.28;93110.44;5485081;26;20065;-69
2024/04/17 05:24:04;;;;;;;19.88;6.95;;;;;;;14.84;72.52;93079.81;5485287;26;20541;-70
2024/04/17 05:26:32;;;;;;;19.05;5.80;;;;;;;14.78;73.36;93085.81;5483790;26;20026;-70
2024/04/17 05:28:58;;;;;;;14.48;6.30;;;;;;;15.05;76.32;93091.97;5448016;26;19998;-71
2024/04/17 05:31:23;;;;;;;16.85;6.45;;;;;;;15.24;77.95;93102.69;5488994;25;20004;-72
2024/04/17 05:33:48;;;;;;;17.45;8.18;;;;;;;15.23;77.66;93112.34;5495359;26;20017;-72
2024/04/17 05:36:14;;;;;;;17.40;6.50;;;;;;;15.32;77.92;93102.50;5461152;26;20035;-71
2024/04/17 05:38:39;;;;;;;17.38;6.63;;;;;;;15.35;77.12;93118.63;5517760;25;20029;-72
2024/04/17 05:41:04;;;;;;;15.48;6.53;;;;;;;15.32;77.97;93124.25;5487353;25;20384;-70
2024/04/17 05:43:30;;;;;;;19.98;7.43;;;;;;;15.07;77.31;93105.66;5497267;26;20132;-71
2024/04/17 05:45:55;;;;;;;17.20;6.28;;;;;;;15.14;76.90;93110.91;5475512;25;19993;-71
2024/04/17 05:48:21;;;;;;;16.45;7.00;;;;;;;15.01;77.78;93126.53;5530455;25;19998;-70
2024/04/17 05:50:46;;;;;;;16.85;6.70;;;;;;;14.80;78.50;93114.38;5491813;26;19998;-82
2024/04/17 05:53:11;;;;;;;18.38;6.72;;;;;;;15.00;77.82;93111.88;5432315;26;19998;-74
2024/04/17 05:55:40;;;;;;;18.75;6.68;;;;;;;15.06;78.85;93109.25;5522657;25;20029;-72
2024/04/17 05:58:06;;;;;;;17.67;6.03;;;;;;;15.08;77.26;93091.56;5488537;26;20041;-72
2024/04/17 06:00:31;;;;;;;15.35;6.07;;;;;;;14.94;79.44;93103.78;5519238;25;20249;-68
2024/04/17 06:02:57;;;;;;;14.90;5.55;;;;;;;15.05;76.35;93107.66;5521220;25;20375;-67
2024/04/17 06:05:22;;;;;;;18.75;5.28;;;;;;;15.08;75.41;93088.97;5524289;25;20373;-68
2024/04/17 06:07:47;;;;;;;11.13;5.55;;;;;;;15.07;77.06;93089.97;5490785;26;19994;-68
2024/04/17 06:10:13;;;;;;;13.48;5.25;;;;;;;14.97;73.90;93079.88;5490608;26;20033;-68
2024/04/17 06:12:38;;;;;;;15.57;5.88;;;;;;;14.81;73.64;93058.50;5458410;26;20502;-68
2024/04/17 06:15:04;;;;;;;12.48;5.97;;;;;;;14.79;73.77;93065.72;5489539;26;19998;-67
2024/04/17 06:17:31;;;;;;;14.80;6.47;;;;;;;14.69;75.23;93038.13;5523252;26;19990;-67
2024/04/17 06:19:56;;;;;;;14.43;6.03;;;;;;;14.67;77.52;93066.25;5523671;26;20001;-67
2024/04/17 06:22:22;;;;;;;16.10;6.10;;;;;;;14.53;75.82;93069.81;5491367;26;19993;-67
2024/04/17 06:24:47;;;;;;;12.65;6.20;;;;;;;14.50;75.66;93065.75;5523765;26;20365;-68
2024/04/17 06:27:12;;;;;;;12.45;6.55;;;;;;;14.48;76.39;93059.09;5493826;26;20037;-68
2024/04/17 06:29:38;;;;;;;9.60;5.10;;;;;;;14.49;74.71;93074.59;5527700;26;20005;-67
2024/04/17 06:32:04;;;;;;;11.43;5.45;;;;;;;14.50;76.40;93081.44;5526392;26;20002;-67
2024/04/17 06:34:30;;;;;;;10.77;5.30;;;;;;;14.25;76.38;93047.13;5495212;26;20004;-67
2024/04/17 06:36:56;;;;;;;11.48;5.30;;;;;;;14.38;75.41;93079.56;5527410;26;20021;-67
2024/04/17 06:39:21;;;;;;;10.85;4.93;;;;;;;14.26;76.19;93061.81;5527631;26;20551;-67
2024/04/17 06:41:47;;;;;;;9.48;5.50;;;;;;;14.18;75.96;93058.53;5494823;26;20037;-67
2024/04/17 06:44:15;;;;;;;11.55;4.60;;;;;;;14.43;76.54;93056.25;5434230;26;20005;-68
2024/04/17 06:46:41;;;;;;;12.25;4.68;;;;;;;14.44;75.35;93069.13;5494961;26;20558;-67
2024/04/17 06:49:06;;;;;;;9.65;4.45;;;;;;;14.33;76.46;93076.72;5527114;26;19993;-67
2024/04/17 06:51:32;;;;;;;8.98;4.22;;;;;;;14.27;77.05;93052.97;5527412;26;19989;-68
2024/04/17 06:53:57;;;;;;;7.13;3.63;;;;;;;14.14;75.25;93050.28;5494559;26;20446;-67
2024/04/17 06:56:23;;;;;;;8.35;2.90;;;;;;;14.30;74.80;93068.25;5464255;26;20012;-67
2024/04/17 06:58:48;;;;;;;7.57;2.50;;;;;;;14.22;75.01;93057.97;5493699;26;20001;-67
2024/04/17 07:01:13;;;;;;;6.57;2.30;;;;;;;14.27;75.50;93067.84;5494342;26;19997;-67
2024/04/17 07:03:39;;;;;;;6.40;1.83;;;;;;;14.22;74.90;93071.00;5527170;26;20002;-67
2024/04/17 07:06:04;;;;;;;7.47;2.08;;;;;;;14.31;73.64;93069.84;5526745;26;20044;-67
2024/04/17 07:08:30;;;;;;;4.68;1.70;;;;;;;14.20;73.30;93070.41;5464200;26;19994;-67
2024/04/17 07:10:55;;;;;;;4.75;1.70;;;;;;;14.38;76.30;93067.31;5464427;26;19989;-68
2024/04/17 07:13:21;;;;;;;5.20;2.03;;;;;;;14.30;74.78;93068.25;5526756;26;20025;-68
2024/04/17 07:15:46;;;;;;;3.05;1.42;;;;;;;14.30;73.92;93067.47;5463876;26;20365;-67
2024/04/17 07:18:12;;;;;;;2.40;1.20;;;;;;;14.30;75.20;93078.72;5526392;26;20025;-68
2024/04/17 07:20:37;;;;;;;4.18;1.10;;;;;;;14.16;74.79;93066.56;5526853;26;20026;-67
2024/04/17 07:23:03;;;;;;;4.22;1.17;;;;;;;14.28;75.04;93072.06;5464166;26;19989;-67
2024/04/17 07:25:28;;;;;;;3.33;1.27;;;;;;;14.26;74.05;93079.28;5526719;26;19993;-68
2024/04/17 07:27:54;;;;;;;3.88;1.02;;;;;;;14.32;74.80;93086.38;5494315;26;20060;-67
2024/04/17 07:30:19;;;;;;;2.63;1.23;;;;;;;14.22;74.75;93084.06;5494680;26;19993;-67
2024/04/17 07:32:45;;;;;;;3.92;0.98;;;;;;;14.02;74.91;93086.56;5526466;26;20012;-67
2024/04/17 07:35:10;;;;;;;4.35;1.00;;;;;;;14.14;75.17;93092.06;5526661;25;20017;-67
2024/04/17 07:37:35;;;;;;;4.80;1.17;;;;;;;14.07;77.45;93094.63;5526519;26;20000;-67
2024/04/17 07:40:01;;;;;;;2.97;0.90;;;;;;;14.28;76.33;93104.19;5494072;26;20029;-67
2024/04/17 07:42:27;;;;;;;2.28;1.20;;;;;;;14.05;76.74;93114.88;5494585;26;20021;-67
2024/04/17 07:44:52;;;;;;;4.32;1.40;;;;;;;14.08;78.86;93101.44;5526651;26;20029;-67
2024/04/17 07:47:18;;;;;;;5.50;0.90;;;;;;;14.09;77.27;93081.38;5526437;26;20004;-67
2024/04/17 07:49:43;;;;;;;5.13;1.42;;;;;;;14.06;78.35;93081.75;5493915;26;20029;-67
2024/04/17 07:52:08;;;;;;;2.72;1.10;;;;;;;13.92;79.07;93074.81;5526212;26;20340;-67
2024/04/17 07:54:34;;;;;;;3.60;1.00;;;;;;;13.83;77.96;93064.53;5493659;26;19997;-67
2024/04/17 07:57:00;;;;;;;2.08;1.00;;;;;;;13.61;78.84;93055.09;5463166;26;20005;-68
2024/04/17 07:59:25;;;;;;;1.90;0.85;;;;;;;13.70;77.91;93046.13;5493835;26;20056;-67
2024/04/17 08:01:50;;;;;;;1.58;0.85;;;;;;;13.59;80.00;93049.25;5526140;26;19990;-67
2024/04/17 08:04:16;;;;;;;3.75;0.95;;;;;;;13.65;80.33;93045.91;5463243;26;20021;-67
2024/04/17 08:06:41;;;;;;;2.17;0.82;;;;;;;13.48;79.58;93005.44;5526215;26;20377;-67
2024/04/17 08:09:07;;;;;;;3.30;1.10;;;;;;;13.53;81.68;93024.72;5524219;26;20065;-67
2024/04/17 08:11:35;;;;;;;3.78;1.00;;;;;;;13.46;79.99;93026.50;5493811;26;20008;-67
2024/04/17 08:14:01;;;;;;;3.33;0.70;;;;;;;13.52;80.48;93011.91;5494486;26;20388;-67
2024/04/17 08:16:27;;;;;;;2.78;1.17;;;;;;;13.52;80.09;93027.53;5462995;26;19993;-67
2024/04/17 08:18:52;;;;;;;2.35;1.10;;;;;;;13.42;79.20;93012.19;5525851;26;20073;-67
2024/04/17 08:21:18;;;;;;;2.50;0.93;;;;;;;13.23;81.94;92986.72;5525625;26;20004;-67
2024/04/17 08:23:43;;;;;;;2.40;1.20;;;;;;;13.42;80.78;93025.25;5526036;26;19994;-67
2024/04/17 08:26:08;;;;;;;2.83;1.20;;;;;;;13.43;81.52;93033.88;5525728;26;20025;-67
2024/04/17 08:28:34;;;;;;;3.78;1.13;;;;;;;13.24;81.46;93030.06;5462973;26;20450;-67
2024/04/17 08:30:59;;;;;;;2.75;1.38;;;;;;;13.22;82.13;93051.09;5493317;26;19997;-67
2024/04/17 08:33:25;;;;;;;2.58;1.35;;;;;;;13.19;82.16;93049.69;5525923;26;20009;-67
2024/04/17 08:35:50;;;;;;;2.67;1.17;;;;;;;13.27;81.03;93034.94;5462858;26;20069;-67
2024/04/17 08:38:16;;;;;;;2.20;1.10;;;;;;;13.22;82.04;93040.69;5525508;26;20033;-67
2024/04/17 08:40:41;;;;;;;3.55;1.50;;;;;;;13.07;83.80;93032.91;5492897;26;20001;-67
2024/04/17 08:43:06;;;;;;;3.70;1.30;;;;;;;13.08;84.03;93020.69;5492893;26;20159;-67
2024/04/17 08:45:35;;;;;;;5.22;1.33;;;;;;;13.30;82.62;93016.31;5525679;25;20439;-67
2024/04/17 08:48:02;;;;;;;4.07;1.35;;;;;;;13.41;81.28;93005.38;5492704;26;20523;-67
2024/04/17 08:50:30;;;;;;;3.00;1.00;;;;;;;13.46;81.12;92994.41;5493001;26;20006;-67
2024/04/17 08:53:00;;;;;;;2.50;0.93;;;;;;;13.56;79.50;92992.25;5493521;26;19994;-67
2024/04/17 08:55:27;;;;;;;2.33;0.90;;;;;;;13.62;80.75;93007.13;5463805;26;20001;-67
2024/04/17 08:57:53;;;;;;;4.25;1.20;;;;;;;13.71;79.99;93008.63;5432422;26;19989;-67
2024/04/17 09:00:18;;;;;;;2.50;1.20;;;;;;;13.76;81.01;92990.59;5525072;26;20004;-67
2024/04/17 09:02:44;;;;;;;2.15;1.10;;;;;;;13.78;82.08;92977.34;5493022;26;20025;-67
2024/04/17 09:05:09;;;;;;;1.80;0.90;;;;;;;13.60;82.16;92943.94;5462450;26;20005;-67
2024/04/17 09:07:36;;;;;;;2.65;1.00;;;;;;;13.85;81.10;92965.97;5462542;26;20380;-67
2024/04/17 09:10:01;;;;;;;2.95;1.00;;;;;;;14.00;81.50;92957.22;5525045;26;20008;-67
2024/04/17 09:12:26;;;;;;;1.98;1.00;;;;;;;14.02;81.92;92947.38;5524850;26;20467;-66
2024/04/17 09:14:53;;;;;;;3.50;1.25;;;;;;;14.21;84.54;92966.78;5492569;26;19998;-67
2024/04/17 09:17:19;;;;;;;2.85;1.10;;;;;;;14.47;80.35;92968.69;5524964;26;19990;-67
2024/04/17 09:19:44;;;;;;;2.70;1.25;;;;;;;14.62;81.29;92965.94;5524746;26;20455;-67
2024/04/17 09:22:10;;;;;;;3.60;1.20;;;;;;;15.00;78.18;92984.53;5528285;26;20057;-67
2024/04/17 09:24:39;;;;;;;1.80;0.82;;;;;;;15.18;76.24;92976.94;5528205;26;20025;-66
2024/04/17 09:27:05;;;;;;;4.75;1.15;;;;;;;15.38;76.19;92966.50;5465295;26;20022;-66
2024/04/17 09:29:32;;;;;;;1.50;0.90;;;;;;;15.73;74.62;92978.59;5495984;26;19989;-66
2024/04/17 09:31:58;;;;;;;3.75;1.08;;;;;;;15.96;75.30;92971.09;5528237;26;19994;-67
2024/04/17 09:34:23;;;;;;;4.65;1.45;;;;;;;16.16;74.25;92962.38;5495890;26;19993;-66
2024/04/17 09:36:48;;;;;;;2.78;1.23;;;;;;;16.31;71.26;92950.66;5495500;26;20001;-66
2024/04/17 09:39:14;;;;;;;3.35;1.20;;;;;;;16.41;71.95;92950.25;5528058;26;20042;-66
2024/04/17 09:41:41;;;;;;;3.88;1.30;;;;;;;16.65;71.57;92950.53;5465537;26;20001;-66
2024/04/17 09:44:07;;;;;;;6.03;1.38;;;;;;;16.74;71.33;92941.41;5465398;26;20129;-66
2024/04/17 09:46:33;;;;;;;3.25;1.23;;;;;;;17.05;69.52;92952.97;5495604;26;19989;-66
2024/04/17 09:48:59;;;;;;;3.55;1.10;;;;;;;17.17;69.04;92951.28;5464983;26;20391;-66
2024/04/17 09:51:25;;;;;;;5.63;1.67;;;;;;;17.22;68.46;92959.31;5465081;26;20004;-66
2024/04/17 10:07:18;;;;;;;4.28;1.55;;;;;;;18.50;65.73;92952.75;5527762;26;20418;-67
2024/04/17 10:09:44;;;;;;;6.18;1.52;;;;;;;18.51;61.31;92954.31;5464956;26;20026;-67
2024/04/17 10:12:11;;;;;;;7.03;2.15;;;;;;;18.51;62.65;92959.59;5495142;26;19994;-66
2024/04/17 10:14:37;;;;;;;7.03;1.67;;;;;;;18.19;61.89;92933.47;5527767;26;19993;-67
2024/04/17 10:17:05;;;;;;;6.22;1.88;;;;;;;18.58;61.33;92944.53;5527681;26;20365;-66
2024/04/17 10:19:30;;;;;;;6.40;1.60;;;;;;;18.80;57.12;92957.25;5496026;26;19993;-67
2024/04/17 10:21:56;;;;;;;6.28;1.73;;;;;;;18.70;57.35;92926.19;5494972;26;20033;-66
2024/04/17 10:24:21;;;;;;;5.28;1.67;;;;;;;18.74;61.45;92945.78;5495058;26;20461;-66
2024/04/17 10:26:49;;;;;;;3.50;1.50;;;;;;;18.94;60.59;92922.66;5527731;26;20029;-66
2024/04/17 10:29:24;;;;;;;7.57;1.90;;;;;;;19.23;62.64;92945.75;5495290;26;19993;-67
2024/04/17 10:32:11;;;;;;;5.20;1.63;;;;;;;19.25;57.88;92897.13;5495686;26;20447;-66
2024/04/17 10:34:47;;;;;;;9.02;1.75;;;;;;;19.38;58.01;92917.16;5495063;26;20060;-66
2024/04/17 10:37:14;;;;;;;6.63;1.48;;;;;;;19.23;55.49;92919.41;5465994;26;19993;-67
2024/04/17 10:39:40;;;;;;;4.45;1.60;;;;;;;18.96;55.57;92909.28;5465392;26;20016;-67
2024/04/17 10:42:06;;;;;;;8.25;1.77;;;;;;;18.73;55.66;92889.72;5527078;26;19990;-67
2024/04/17 10:44:33;;;;;;;4.93;1.70;;;;;;;18.91;56.38;92890.72;5494800;26;20000;-67
2024/04/17 10:47:05;;;;;;;4.57;1.60;;;;;;;18.80;57.17;92888.84;5464661;26;19990;-66
2024/04/17 10:49:37;;;;;;;5.60;1.85;;;;;;;19.22;57.72;92894.13;5464715;26;19999;-67
2024/04/17 10:52:03;;;;;;;8.07;1.95;;;;;;;19.53;56.29;92878.03;5494760;26;19990;-66
2024/04/17 10:54:29;;;;;;;5.07;1.85;;;;;;;19.72;55.86;92885.84;5464118;26;20008;-67
2024/04/17 10:56:55;;;;;;;6.93;1.90;;;;;;;20.02;53.65;92873.31;5464353;26;20005;-67
2024/04/17 10:59:27;;;;;;;6.07;1.60;;;;;;;20.15;52.63;92868.84;5527229;26;20004;-67
2024/04/17 11:01:53;;;;;;;5.43;2.00;;;;;;;20.21;50.10;92881.88;5527113;26;19994;-67
2024/04/17 11:04:18;;;;;;;5.32;1.73;;;;;;;19.69;52.26;92871.28;5527217;26;20021;-67
2024/04/17 11:06:43;;;;;;;4.85;1.77;;;;;;;19.62;50.94;92881.91;5527075;26;20379;-67
2024/04/17 11:09:09;;;;;;;5.97;1.73;;;;;;;19.76;51.94;92889.63;5494517;26;19997;-66
2024/04/17 11:11:34;;;;;;;5.22;1.80;;;;;;;19.49;52.47;92892.66;5433857;26;20065;-67
2024/04/17 11:14:00;;;;;;;6.25;1.48;;;;;;;19.58;52.69;92867.59;5494613;26;20021;-67
2024/04/17 11:16:25;;;;;;;4.15;1.40;;;;;;;19.68;50.84;92839.94;5526983;26;20026;-66
2024/04/17 11:18:51;;;;;;;7.93;1.70;;;;;;;19.90;50.13;92867.28;5494149;26;20009;-67
2024/04/17 11:21:16;;;;;;;5.03;1.60;;;;;;;19.77;50.27;92865.69;5463978;26;19993;-66
2024/04/17 11:23:43;;;;;;;4.90;1.65;;;;;;;19.62;48.53;92852.94;5494179;26;19993;-66
2024/04/17 11:26:09;;;;;;;7.45;1.30;;;;;;;20.01;48.24;92865.66;5464198;26;20001;-66
2024/04/17 11:28:35;;;;;;;6.07;1.65;;;;;;;19.94;49.42;92870.25;5494685;26;20065;-66
2024/04/17 11:31:00;;;;;;;5.72;1.55;;;;;;;20.05;50.85;92862.31;5463617;26;19997;-66
2024/04/17 11:33:29;;;;;;;10.05;1.48;;;;;;;20.28;49.84;92842.22;5526508;26;20009;-67
2024/04/17 11:36:07;;;;;;;5.28;1.40;;;;;;;20.25;47.92;92843.50;5435970;26;20061;-66